createdAt,value
2018-12-19T00:00:48.517Z,99915.41
2018-12-19T00:03:24.529Z,99903.66
2018-12-19T00:05:59.122Z,99901.30
2018-12-19T00:08:34.702Z,99782.75
2018-12-19T00:11:12.689Z,99892.94
2018-12-19T00:13:43.313Z,99900.89
2018-12-19T00:16:18.254Z,99906.83
2018-12-19T00:18:56.928Z,99876.47
2018-12-19T00:21:30.756Z,99899.84
2018-12-19T00:24:03.823Z,99900.63
2018-12-19T00:26:36.593Z,99890.41
2018-12-19T00:31:51.210Z,99894.75
2018-12-19T00:34:32.992Z,99892.59
2018-12-19T00:37:09.781Z,99857.23
2018-12-19T00:39:43.582Z,99872.26
2018-12-19T00:42:19.583Z,99864.12
2018-12-19T00:44:53.784Z,99869.41
2018-12-19T00:47:38.777Z,99874.48
2018-12-19T00:50:15.041Z,99870.04
2018-12-19T00:52:53.480Z,99859.46
2018-12-19T00:55:31.356Z,99858.08
2018-12-19T00:58:07.695Z,99862.79
2018-12-19T01:00:44.734Z,99857.59
2018-12-19T01:03:18.321Z,99855.55
2018-12-19T01:05:54.912Z,99864.55
2018-12-19T01:08:28.329Z,99861.41
2018-12-19T01:10:59.621Z,99857.78
2018-12-19T01:13:35.690Z,99872.45
2018-12-19T01:16:08.949Z,99868.64
2018-12-19T01:18:52.254Z,99860.00
2018-12-19T01:21:26.116Z,99798.16
2018-12-19T01:24:05.246Z,99845.78
2018-12-19T01:26:40.671Z,99867.50
2018-12-19T01:29:14.773Z,99854.33
2018-12-19T01:31:47.884Z,99864.11
2018-12-19T01:34:21.191Z,99864.90
2018-12-19T01:36:55.831Z,99862.66
2018-12-19T01:39:30.412Z,99883.70
2018-12-19T01:42:08.243Z,99876.14
2018-12-19T01:44:47.804Z,99881.89
2018-12-19T01:47:22.595Z,99878.40
2018-12-19T01:49:56.743Z,99870.81
2018-12-19T01:52:31.577Z,99858.23
2018-12-19T01:55:11.428Z,99863.52
2018-12-19T01:57:47.358Z,99866.09
2018-12-19T02:00:28.132Z,99857.97
2018-12-19T02:05:55.810Z,99853.28
2018-12-19T02:08:31.774Z,99851.10
2018-12-19T02:11:06.261Z,99848.23
2018-12-19T02:13:40.698Z,99844.45
2018-12-19T02:16:13.502Z,99845.03
2018-12-19T02:18:53.687Z,99842.06
2018-12-19T02:21:29.274Z,99845.53
2018-12-19T02:24:09.808Z,99851.68
2018-12-19T02:26:47.617Z,99852.70
2018-12-19T02:29:21.143Z,99851.33
2018-12-19T02:31:58.153Z,99847.70
2018-12-19T02:34:32.804Z,99847.87
2018-12-19T02:37:11.301Z,99849.64
2018-12-19T02:39:47.739Z,99847.34
2018-12-19T02:42:21.608Z,99835.66
2018-12-19T02:44:53.771Z,99835.03
2018-12-19T02:47:30.673Z,99838.92
2018-12-19T02:50:07.109Z,99839.09
2018-12-19T02:52:42.683Z,99767.84
2018-12-19T02:55:16.468Z,99819.05
2018-12-19T02:57:52.415Z,99841.66
2018-12-19T03:00:32.777Z,99838.89
2018-12-19T03:03:03.009Z,99830.53
2018-12-19T03:05:33.039Z,99832.94
2018-12-19T03:08:02.560Z,99825.06
2018-12-19T03:10:32.083Z,99808.88
2018-12-19T03:13:01.876Z,99821.89
2018-12-19T03:18:27.558Z,99827.70
2018-12-19T03:20:58.277Z,99821.15
2018-12-19T03:23:30.388Z,99829.34
2018-12-19T03:26:01.560Z,99814.78
2018-12-19T03:28:32.165Z,99822.97
2018-12-19T03:31:02.846Z,99838.50
2018-12-19T03:33:36.686Z,99828.19
2018-12-19T03:36:06.464Z,99826.36
2018-12-19T03:38:36.669Z,99821.78
2018-12-19T03:41:08.249Z,99807.34
2018-12-19T03:43:38.775Z,99786.71
2018-12-19T03:46:09.354Z,99823.50
2018-12-19T03:48:45.090Z,99825.52
2018-12-19T03:51:14.804Z,99821.89
2018-12-19T03:53:45.650Z,99813.91
2018-12-19T03:56:16.317Z,99808.73
2018-12-19T03:58:46.006Z,99805.09
2018-12-19T04:01:16.193Z,99817.93
2018-12-19T04:03:45.999Z,99820.98
2018-12-19T04:06:16.813Z,99811.34
2018-12-19T04:08:47.704Z,99807.29
2018-12-19T04:11:18.266Z,99800.75
2018-12-19T04:13:49.781Z,99796.97
2018-12-19T04:16:20.029Z,99793.97
2018-12-19T04:18:49.720Z,99803.97
2018-12-19T04:21:21.106Z,99790.52
2018-12-19T04:23:50.797Z,99804.34
2018-12-19T04:26:20.606Z,99814.66
2018-12-19T04:28:50.878Z,99804.69
2018-12-19T04:31:20.721Z,99816.31
2018-12-19T04:33:50.455Z,99802.29
2018-12-19T04:36:20.441Z,99797.14
2018-12-19T04:38:52.582Z,99785.70
2018-12-19T04:41:24.109Z,99781.02
2018-12-19T04:43:53.860Z,99796.34
2018-12-19T04:46:23.727Z,99793.55
2018-12-19T04:48:54.258Z,99789.94
2018-12-19T04:51:24.587Z,99795.47
2018-12-19T04:53:55.260Z,99800.45
2018-12-19T04:56:25.429Z,99794.53
2018-12-19T04:58:56.730Z,99802.19
2018-12-19T05:01:27.102Z,99791.88
2018-12-19T05:03:57.788Z,99799.20
2018-12-19T05:06:29.383Z,99792.91
2018-12-19T05:08:59.943Z,99788.06
2018-12-19T05:11:30.368Z,99783.59
2018-12-19T05:14:02.063Z,99787.09
2018-12-19T05:16:33.187Z,99790.76
2018-12-19T05:19:04.241Z,99797.59
2018-12-19T05:21:35.086Z,99800.22
2018-12-19T05:24:06.237Z,99797.23
2018-12-19T05:26:38.171Z,99790.59
2018-12-19T05:29:09.091Z,99788.22
2018-12-19T05:31:42.318Z,99792.38
2018-12-19T05:34:13.136Z,99793.89
2018-12-19T05:36:45.554Z,99809.68
2018-12-19T05:39:16.193Z,99814.52
2018-12-19T05:41:46.782Z,99816.33
2018-12-19T05:44:18.601Z,99805.47
2018-12-19T05:46:49.146Z,99790.45
2018-12-19T05:52:11.047Z,99791.71
2018-12-19T05:54:44.087Z,99795.77
2018-12-19T05:57:20.353Z,99773.66
2018-12-19T05:59:52.288Z,99780.92
2018-12-19T06:02:22.758Z,99785.96
2018-12-19T06:04:53.459Z,99792.48
2018-12-19T06:07:25.332Z,99787.77
2018-12-19T06:09:57.716Z,99782.41
2018-12-19T06:12:30.948Z,99789.37
2018-12-19T06:15:04.527Z,99806.92
2018-12-19T06:17:37.485Z,99805.48
2018-12-19T06:20:09.027Z,99797.16
2018-12-19T06:22:41.528Z,99803.06
2018-12-19T06:25:13.858Z,99785.70
2018-12-19T06:27:47.904Z,99796.88
2018-12-19T06:33:13.472Z,99794.22
2018-12-19T06:35:51.686Z,99799.25
2018-12-19T06:38:43.332Z,99797.58
2018-12-19T06:44:08.376Z,99793.42
2018-12-19T06:46:44.172Z,99793.11
2018-12-19T06:49:18.959Z,99790.80
2018-12-19T06:52:01.846Z,99798.50
2018-12-19T06:54:34.783Z,99789.19
2018-12-19T06:57:09.706Z,99782.52
2018-12-19T06:59:43.469Z,99774.03
2018-12-19T07:02:19.704Z,99795.98
2018-12-19T07:04:53.949Z,99799.29
2018-12-19T07:07:34.593Z,99808.13
2018-12-19T07:10:09.715Z,99813.94
2018-12-19T07:12:41.537Z,99810.96
2018-12-19T07:15:18.523Z,99808.64
2018-12-19T07:17:53.603Z,99808.84
2018-12-19T07:20:28.637Z,99807.02
2018-12-19T07:23:01.968Z,99805.23
2018-12-19T07:25:33.914Z,99818.67
2018-12-19T07:30:41.259Z,99810.19
2018-12-19T07:33:18.920Z,99794.70
2018-12-19T07:35:50.587Z,99808.08
2018-12-19T07:38:22.834Z,99809.90
2018-12-19T07:40:56.600Z,99810.01
2018-12-19T07:43:30.259Z,99811.09
2018-12-19T07:46:02.217Z,99813.06
2018-12-19T07:48:34.098Z,99796.70
2018-12-19T07:51:04.628Z,99806.25
2018-12-19T07:53:35.339Z,99811.28
2018-12-19T07:56:07.043Z,99807.51
2018-12-19T07:58:50.821Z,99789.66
2018-12-19T08:04:26.509Z,99814.95
2018-12-19T08:07:08.941Z,99814.86
2018-12-19T08:09:41.430Z,99811.19
2018-12-19T08:12:18.742Z,99807.20
2018-12-19T08:14:51.714Z,99799.94
2018-12-19T08:17:30.065Z,99807.20
2018-12-19T08:20:01.535Z,99822.84
2018-12-19T08:22:33.287Z,99814.14
2018-12-19T08:25:06.571Z,99796.67
2018-12-19T08:27:36.740Z,99818.30
2018-12-19T08:30:13.384Z,99815.40
2018-12-19T08:32:55.299Z,99812.52
2018-12-19T08:35:30.757Z,99805.72
2018-12-19T08:38:05.137Z,99822.55
2018-12-19T08:40:38.795Z,99833.63
2018-12-19T08:43:16.020Z,99840.63
2018-12-19T08:45:48.435Z,99838.95
2018-12-19T08:48:29.739Z,99842.11
2018-12-19T08:51:05.082Z,99838.89
2018-12-19T08:53:37.943Z,99847.46
2018-12-19T08:56:12.358Z,99844.27
2018-12-19T08:58:43.631Z,99856.17
2018-12-19T09:01:15.353Z,99850.12
2018-12-19T09:03:50.586Z,99846.66
2018-12-19T09:06:27.251Z,99852.66
2018-12-19T09:11:39.039Z,99847.63
2018-12-19T09:14:11.537Z,99849.87
2018-12-19T09:16:47.012Z,99847.94
2018-12-19T09:19:17.684Z,99851.22
2018-12-19T09:21:49.094Z,99848.37
2018-12-19T09:24:20.799Z,99848.66
2018-12-19T09:26:56.224Z,99862.35
2018-12-19T09:29:32.445Z,99880.00
2018-12-19T09:32:09.763Z,99860.55
2018-12-19T09:34:42.787Z,99864.87
2018-12-19T09:37:21.503Z,99872.55
2018-12-19T09:42:48.842Z,99866.55
2018-12-19T09:45:24.875Z,99857.38
2018-12-19T09:47:56.282Z,99869.87
2018-12-19T09:50:33.258Z,99867.86
2018-12-19T09:53:19.774Z,99868.70
2018-12-19T09:55:52.265Z,99870.36
2018-12-19T09:58:22.686Z,99877.17
2018-12-19T10:00:55.824Z,99866.48
2018-12-19T10:03:27.489Z,99864.66
2018-12-19T10:06:04.450Z,99866.13
2018-12-19T10:08:37.674Z,99875.43
2018-12-19T10:11:18.700Z,99857.05
2018-12-19T10:13:49.891Z,99853.48
2018-12-19T10:16:37.510Z,99853.69
2018-12-19T10:19:12.578Z,99843.92
2018-12-19T10:21:47.402Z,99851.01
2018-12-19T10:24:18.872Z,99861.44
2018-12-19T10:26:54.475Z,99850.93
2018-12-19T10:29:27.070Z,99857.92
2018-12-19T10:32:00.083Z,99851.48
2018-12-19T10:34:34.461Z,99857.35
2018-12-19T10:37:07.976Z,99846.20
2018-12-19T10:39:40.352Z,99830.89
2018-12-19T10:42:15.380Z,99839.21
2018-12-19T10:44:47.254Z,99828.72
2018-12-19T10:47:20.852Z,99836.22
2018-12-19T10:49:53.404Z,99831.56
2018-12-19T10:52:25.514Z,99822.52
2018-12-19T10:54:57.297Z,99820.02
2018-12-19T10:57:30.407Z,99818.72
2018-12-19T11:00:05.167Z,99808.73
2018-12-19T11:02:38.576Z,99817.41
2018-12-19T11:05:10.027Z,99815.05
2018-12-19T11:07:43.563Z,99825.34
2018-12-19T11:10:15.865Z,99821.36
2018-12-19T11:12:48.535Z,99810.49
2018-12-19T11:15:20.906Z,99822.50
2018-12-19T11:18:07.172Z,99815.55
2018-12-19T11:20:47.497Z,99814.16
2018-12-19T11:23:18.622Z,99808.01
2018-12-19T11:25:49.657Z,99817.86
2018-12-19T11:28:21.646Z,99803.23
2018-12-19T11:30:54.630Z,99810.53
2018-12-19T11:33:26.227Z,99807.90
2018-12-19T11:35:58.024Z,99807.41
2018-12-19T11:38:31.511Z,99798.89
2018-12-19T11:41:04.398Z,99806.06
2018-12-19T11:43:37.936Z,99802.91
2018-12-19T11:46:10.059Z,99804.56
2018-12-19T11:48:41.629Z,99803.55
2018-12-19T11:51:16.425Z,99798.56
2018-12-19T11:56:20.972Z,99789.91
2018-12-19T11:58:58.273Z,99798.83
2018-12-19T12:01:41.172Z,99789.58
2018-12-19T12:04:17.347Z,99804.19
2018-12-19T12:06:59.295Z,99760.10
2018-12-19T12:09:33.136Z,99770.02
2018-12-19T12:12:09.196Z,99794.52
2018-12-19T12:14:49.215Z,99790.38
2018-12-19T12:17:24.867Z,99791.75
2018-12-19T12:20:03.780Z,99772.34
2018-12-19T12:22:38.452Z,99775.83
2018-12-19T12:25:11.126Z,99774.59
2018-12-19T12:27:46.991Z,99772.95
2018-12-19T12:30:22.840Z,99756.67
2018-12-19T12:33:05.021Z,99747.45
2018-12-19T12:35:44.111Z,99738.87
2018-12-19T12:38:22.848Z,99754.38
2018-12-19T12:40:57.151Z,99757.76
2018-12-19T12:43:33.679Z,99752.42
2018-12-19T12:46:15.619Z,99743.16
2018-12-19T12:48:56.359Z,99745.52
2018-12-19T12:51:37.883Z,99745.25
2018-12-19T12:54:17.907Z,99741.05
2018-12-19T12:56:50.789Z,99733.52
2018-12-19T12:59:29.326Z,99729.48
2018-12-19T13:02:05.393Z,99735.64
2018-12-19T13:04:43.706Z,99732.34
2018-12-19T13:07:18.227Z,99731.64
2018-12-19T13:09:52.358Z,99723.31
2018-12-19T13:12:27.885Z,99718.19
2018-12-19T13:15:05.982Z,99723.67
2018-12-19T13:17:42.415Z,99726.79
2018-12-19T13:20:23.616Z,99722.48
2018-12-19T13:22:59.290Z,99719.94
2018-12-19T13:25:31.959Z,99721.98
2018-12-19T13:28:11.556Z,99716.69
2018-12-19T13:30:48.568Z,99717.02
2018-12-19T13:33:21.355Z,99732.91
2018-12-19T13:35:57.096Z,99721.98
2018-12-19T13:38:33.725Z,99728.25
2018-12-19T13:41:10.749Z,99730.16
2018-12-19T13:43:49.325Z,99708.89
2018-12-19T13:46:27.571Z,99715.98
2018-12-19T13:49:06.448Z,99635.28
2018-12-19T13:51:44.338Z,99709.12
2018-12-19T13:54:24.773Z,99713.28
2018-12-19T13:56:59.229Z,99702.52
2018-12-19T13:59:37.026Z,99710.38
2018-12-19T14:02:13.944Z,99708.95
2018-12-19T14:04:49.339Z,99723.99
2018-12-19T14:07:22.072Z,99696.54
2018-12-19T14:09:58.118Z,99697.13
2018-12-19T14:12:34.774Z,99709.90
2018-12-19T14:15:16.304Z,99710.87
2018-12-19T14:17:50.479Z,99705.49
2018-12-19T14:20:30.431Z,99703.95
2018-12-19T14:23:07.192Z,99695.09
2018-12-19T14:25:43.833Z,99705.75
2018-12-19T14:28:17.207Z,99692.55
2018-12-19T14:30:56.363Z,99693.24
2018-12-19T14:33:30.752Z,99683.98
2018-12-19T14:36:09.913Z,99678.86
2018-12-19T14:38:46.459Z,99683.53
2018-12-19T14:41:24.586Z,99679.58
2018-12-19T14:44:06.543Z,99678.91
2018-12-19T14:46:53.215Z,99674.33
2018-12-19T14:49:26.612Z,99685.52
2018-12-19T14:52:05.966Z,99687.16
2018-12-19T14:54:43.426Z,99682.64
2018-12-19T14:57:18.440Z,99676.38
2018-12-19T14:59:53.462Z,99679.95
2018-12-19T15:02:37.877Z,99704.61
2018-12-19T15:11:36.974Z,99722.84
2018-12-19T15:14:13.747Z,99713.13
2018-12-19T15:16:51.140Z,99700.96
2018-12-19T15:19:28.713Z,99694.30
2018-12-19T15:22:11.499Z,99686.61
2018-12-19T15:24:47.824Z,99696.30
2018-12-19T15:27:23.878Z,99703.95
2018-12-19T15:29:59.655Z,99697.70
2018-12-19T15:32:33.367Z,99697.08
2018-12-19T15:35:15.600Z,99701.44
2018-12-19T15:37:52.931Z,99698.22
2018-12-19T15:40:27.570Z,99698.42
2018-12-19T15:43:07.552Z,99699.97
2018-12-19T15:45:45.281Z,99696.82
2018-12-19T15:48:20.485Z,99681.80
2018-12-19T15:51:01.108Z,99705.30
2018-12-19T15:53:36.875Z,99708.66
2018-12-19T15:56:16.271Z,99699.66
2018-12-19T15:58:51.172Z,99704.95
2018-12-19T16:01:29.644Z,99708.56
2018-12-19T16:04:03.740Z,99703.46
2018-12-19T16:06:42.655Z,99701.16
2018-12-19T16:09:16.868Z,99709.81
2018-12-19T16:11:54.427Z,99715.22
2018-12-19T16:14:30.176Z,99715.83
2018-12-19T16:17:05.853Z,99699.54
2018-12-19T16:19:39.849Z,99724.06
2018-12-19T16:22:19.230Z,99727.44
2018-12-19T16:25:00.089Z,99727.90
2018-12-19T16:27:37.469Z,99726.64
2018-12-19T16:32:56.488Z,99732.25
2018-12-19T16:35:31.403Z,99722.91
2018-12-19T16:38:08.307Z,99721.23
2018-12-19T16:40:47.977Z,99714.64
2018-12-19T16:43:24.231Z,99714.00
2018-12-19T16:46:00.025Z,99716.08
2018-12-19T16:48:37.844Z,99710.38
2018-12-19T16:51:12.076Z,99711.66
2018-12-19T16:53:49.437Z,99706.69
2018-12-19T16:56:30.094Z,99701.84
2018-12-19T16:59:06.605Z,99720.26
2018-12-19T17:01:43.277Z,99718.02
2018-12-19T17:04:21.535Z,99706.83
2018-12-19T17:07:03.759Z,99701.36
2018-12-19T17:09:39.973Z,99718.75
2018-12-19T17:12:24.608Z,99703.85
2018-12-19T17:15:06.310Z,99698.82
2018-12-19T17:17:39.460Z,99693.64
2018-12-19T17:20:24.705Z,99688.19
2018-12-19T17:23:01.621Z,99690.80
2018-12-19T17:25:39.755Z,99694.43
2018-12-19T17:28:13.335Z,99688.20
2018-12-19T17:30:52.812Z,99684.05
2018-12-19T17:33:30.250Z,99683.75
2018-12-19T17:36:12.513Z,99690.97
2018-12-19T17:38:52.840Z,99690.01
2018-12-19T17:41:28.349Z,99701.66
2018-12-19T17:44:04.835Z,99698.97
2018-12-19T17:46:45.600Z,99707.40
2018-12-19T17:49:21.411Z,99700.50
2018-12-19T17:51:56.488Z,99708.64
2018-12-19T17:54:32.716Z,99664.66
2018-12-19T17:57:13.256Z,99705.51
2018-12-19T17:59:49.553Z,99706.16
2018-12-19T18:02:23.239Z,99702.06
2018-12-19T18:04:59.052Z,99700.30
2018-12-19T18:07:37.761Z,99685.98
2018-12-19T18:10:12.278Z,99688.26
2018-12-19T18:12:53.271Z,99681.94
2018-12-19T18:15:29.215Z,99681.60
2018-12-19T18:18:09.189Z,99682.24
2018-12-19T18:20:42.631Z,99685.27
2018-12-19T18:23:20.088Z,99686.51
2018-12-19T18:25:59.783Z,99683.34
2018-12-19T18:28:36.962Z,99684.53
2018-12-19T18:31:10.423Z,99661.93
2018-12-19T18:33:50.674Z,99672.87
2018-12-19T18:36:30.247Z,99672.63
2018-12-19T18:39:08.765Z,99662.03
2018-12-19T18:41:42.245Z,99665.89
2018-12-19T18:44:21.597Z,99668.11
2018-12-19T18:46:57.249Z,99663.22
2018-12-19T18:49:37.730Z,99657.45
2018-12-19T18:52:16.375Z,99652.89
2018-12-19T18:54:51.591Z,99651.80
2018-12-19T18:57:25.564Z,99645.12
2018-12-19T19:00:01.634Z,99647.12
2018-12-19T19:02:39.319Z,99643.48
2018-12-19T19:05:22.392Z,99641.73
2018-12-19T19:07:56.431Z,99642.05
2018-12-19T19:10:36.358Z,99640.80
2018-12-19T19:15:56.870Z,99557.72
2018-12-19T19:18:42.066Z,99651.63
2018-12-19T19:21:22.906Z,99654.48
2018-12-19T19:24:04.689Z,99650.23
2018-12-19T19:26:41.563Z,99651.34
2018-12-19T19:29:23.107Z,99654.18
2018-12-19T19:32:04.374Z,99659.96
2018-12-19T19:34:40.613Z,99646.26
2018-12-19T19:37:15.640Z,99646.77
2018-12-19T19:39:52.218Z,99651.14
2018-12-19T19:42:27.425Z,99642.81
2018-12-19T19:45:08.113Z,99643.17
2018-12-19T19:47:46.296Z,99641.25
2018-12-19T19:50:24.671Z,99642.34
2018-12-19T19:53:02.530Z,99643.21
2018-12-19T19:55:41.449Z,99646.09
2018-12-19T19:58:17.490Z,99652.81
2018-12-19T20:00:50.516Z,99652.01
2018-12-19T20:03:31.505Z,99652.20
2018-12-19T20:06:10.221Z,99659.78
2018-12-19T20:08:46.109Z,99656.20
2018-12-19T20:11:23.234Z,99615.04
2018-12-19T20:14:03.105Z,99666.83
2018-12-19T20:17:10.929Z,99677.00
2018-12-19T20:19:50.178Z,99662.84
2018-12-19T20:22:26.151Z,99658.63
2018-12-19T20:25:08.006Z,99653.41
2018-12-19T20:27:42.040Z,99657.52
2018-12-19T20:30:26.979Z,99650.97
2018-12-19T20:33:10.374Z,99645.02
2018-12-19T20:35:51.247Z,99649.03
2018-12-19T20:38:26.600Z,99651.51
2018-12-19T20:41:03.027Z,99640.38
2018-12-19T20:43:40.136Z,99638.30
2018-12-19T20:46:13.701Z,99636.89
2018-12-19T20:48:52.782Z,99643.41
2018-12-19T20:51:29.584Z,99644.57
2018-12-19T20:54:08.419Z,99632.02
2018-12-19T20:56:44.204Z,99650.16
2018-12-19T20:59:16.730Z,99648.81
2018-12-19T21:01:54.153Z,99576.05
2018-12-19T21:04:28.314Z,99645.99
2018-12-19T21:07:04.646Z,99646.69
2018-12-19T21:09:39.412Z,99642.32
2018-12-19T21:12:16.867Z,99636.09
2018-12-19T21:14:56.242Z,99638.29
2018-12-19T21:17:38.915Z,99641.45
2018-12-19T21:20:14.104Z,99620.73
2018-12-19T21:22:55.251Z,99635.20
2018-12-19T21:25:37.562Z,99631.02
2018-12-19T21:28:15.649Z,99631.64
2018-12-19T21:30:53.383Z,99624.81
2018-12-19T21:33:38.724Z,99630.45
2018-12-19T21:36:26.315Z,99622.16
2018-12-19T21:39:04.307Z,99616.55
2018-12-19T21:41:39.769Z,99619.81
2018-12-19T21:44:13.700Z,99617.30
2018-12-19T21:46:51.756Z,99613.16
2018-12-19T21:49:28.371Z,99611.71
2018-12-19T21:52:07.539Z,99611.71
2018-12-19T21:57:38.358Z,99609.27
2018-12-19T22:00:23.247Z,99609.10
2018-12-19T22:03:03.160Z,99606.88
2018-12-19T22:05:41.022Z,99603.17
2018-12-19T22:08:18.522Z,99579.14
2018-12-19T22:10:53.396Z,99614.86
2018-12-19T22:13:33.176Z,99612.05
2018-12-19T22:16:10.845Z,99614.10
2018-12-19T22:18:55.899Z,99610.45
2018-12-19T22:21:32.868Z,99616.45
2018-12-19T22:24:06.995Z,99621.56
2018-12-19T22:26:43.147Z,99610.23
2018-12-19T22:29:24.716Z,99607.27
2018-12-19T22:31:57.429Z,99610.80
2018-12-19T22:34:38.448Z,99618.52
2018-12-19T22:37:16.771Z,99615.84
2018-12-19T22:39:55.499Z,99607.46
2018-12-19T22:42:38.302Z,99611.95
2018-12-19T22:45:18.580Z,99612.16
2018-12-19T22:47:53.655Z,99607.06
2018-12-19T22:50:36.158Z,99610.34
2018-12-19T22:53:21.607Z,99607.06
2018-12-19T22:56:04.324Z,99617.05
2018-12-19T22:58:38.703Z,99612.08
2018-12-19T23:01:16.861Z,99611.48
2018-12-19T23:03:57.552Z,99609.30
2018-12-19T23:06:40.871Z,99614.13
2018-12-19T23:09:15.820Z,99612.02
2018-12-19T23:11:56.811Z,99612.74
2018-12-19T23:14:31.560Z,99611.36
2018-12-19T23:17:10.915Z,99616.59
2018-12-19T23:19:44.973Z,99611.40
2018-12-19T23:22:19.873Z,99618.63
2018-12-19T23:24:55.523Z,99614.61
2018-12-19T23:27:36.892Z,99617.45
2018-12-19T23:30:14.417Z,99610.97
2018-12-19T23:32:46.598Z,99599.23
2018-12-19T23:35:26.781Z,99611.69
2018-12-19T23:38:04.948Z,99608.91
2018-12-19T23:40:40.384Z,99611.36
2018-12-19T23:43:18.448Z,99612.03
2018-12-19T23:45:51.848Z,99599.36
2018-12-19T23:48:25.077Z,99616.77
2018-12-19T23:51:01.746Z,99610.19
2018-12-19T23:53:38.931Z,99611.38
2018-12-19T23:56:17.718Z,99605.77
2018-12-19T23:58:53.975Z,99601.33
